Time;durP1;ratioP1;P1;durP2;ratioP2;P2;SDS_P1;SDS_P2;PMS_P1;PMS_P2;Temp;Humidity;BMP_temperature;BMP_pressure;BME280_temperature;BME280_humidity;BME280_pressure;Samples;Min_cycle;Max_cycle;Signal;HPM_P1;HPM_P2
2023/10/21 00:01:37;;;;;;;;;;;14.50;99.00;;;;;;5118131;27;19994;-79
2023/10/21 00:04:04;;;;;;;;;;;14.50;98.90;;;;;;5119218;27;20288;-78
2023/10/21 00:06:31;;;;;;;;;;;14.40;98.80;;;;;;5117010;27;20435;-76
2023/10/21 00:08:58;;;;;;;;;;;14.40;98.70;;;;;;5116413;27;19986;-77
2023/10/21 00:11:26;;;;;;;;;;;14.40;98.70;;;;;;5119788;27;19982;-79
2023/10/21 00:13:53;;;;;;;;;;;14.40;98.60;;;;;;5112100;27;19982;-80
2023/10/21 00:16:19;;;;;;;;;;;14.40;98.30;;;;;;5124492;27;20001;-79
2023/10/21 00:18:46;;;;;;;;;;;14.40;98.10;;;;;;5117071;27;19994;-79
2023/10/21 00:21:13;;;;;;;;;;;14.40;97.80;;;;;;5120134;27;20673;-79
2023/10/21 00:23:40;;;;;;;;;;;14.40;97.60;;;;;;5118018;27;19997;-77
2023/10/21 00:26:07;;;;;;;;;;;14.40;97.40;;;;;;5121261;27;21213;-78
2023/10/21 00:28:35;;;;;;;;;;;14.40;97.30;;;;;;5120265;27;20004;-79
2023/10/21 00:31:03;;;;;;;;;;;14.40;97.20;;;;;;5118999;27;19998;-78
2023/10/21 00:33:29;;;;;;;;;;;14.40;97.10;;;;;;5121855;27;20077;-79
2023/10/21 00:35:56;;;;;;;;;;;14.40;97.00;;;;;;5117249;27;20463;-78
2023/10/21 00:38:23;;;;;;;;;;;14.50;96.90;;;;;;5119838;27;19998;-80
2023/10/21 00:40:50;;;;;;;;;;;14.50;96.80;;;;;;5116183;27;19974;-79
2023/10/21 00:43:31;;;;;;;;;;;14.40;96.70;;;;;;5119423;27;20089;-77
2023/10/21 00:45:59;;;;;;;;;;;14.50;96.50;;;;;;5121356;27;19994;-78
2023/10/21 00:48:26;;;;;;;;;;;14.50;96.60;;;;;;5121644;27;20036;-77
2023/10/21 00:50:54;;;;;;;;;;;14.50;96.20;;;;;;5115287;27;20027;-80
2023/10/21 00:53:21;;;;;;;;;;;14.50;96.00;;;;;;5118097;27;19991;-77
2023/10/21 00:55:48;;;;;;;;;;;14.50;95.90;;;;;;5117096;27;19993;-78
2023/10/21 00:58:15;;;;;;;;;;;14.50;95.70;;;;;;5123480;27;20520;-79
2023/10/21 01:00:42;;;;;;;;;;;14.60;95.80;;;;;;5118384;27;20082;-79
2023/10/21 01:03:10;;;;;;;;;;;14.60;95.70;;;;;;5123392;27;19998;-79
2023/10/21 01:05:37;;;;;;;;;;;14.60;95.60;;;;;;5119551;27;19985;-78
2023/10/21 01:08:04;;;;;;;;;;;14.60;95.50;;;;;;5117455;27;19983;-77
2023/10/21 01:10:31;;;;;;;;;;;14.60;95.60;;;;;;5117100;27;20010;-78
2023/10/21 01:12:58;;;;;;;;;;;14.60;95.60;;;;;;5118572;27;20028;-78
2023/10/21 01:15:24;;;;;;;;;;;14.70;95.70;;;;;;5122425;27;19982;-78
2023/10/21 01:17:51;;;;;;;;;;;14.70;95.70;;;;;;5119782;27;20117;-78
2023/10/21 01:20:20;;;;;;;;;;;14.70;95.80;;;;;;5119371;27;19978;-79
2023/10/21 01:22:46;;;;;;;;;;;14.70;95.90;;;;;;5117797;27;20046;-78
2023/10/21 01:25:14;;;;;;;;;;;14.70;96.00;;;;;;5112986;27;20370;-79
2023/10/21 01:27:41;;;;;;;;;;;14.70;96.00;;;;;;5117050;27;19978;-78
2023/10/21 01:30:08;;;;;;;;;;;14.70;95.90;;;;;;5116860;27;19979;-79
2023/10/21 01:32:35;;;;;;;;;;;14.70;96.00;;;;;;5119095;27;19994;-80
2023/10/21 01:35:05;;;;;;;;;;;14.70;96.30;;;;;;5127212;27;19977;-78
2023/10/21 01:37:32;;;;;;;;;;;14.70;96.00;;;;;;5116984;27;19978;-80
2023/10/21 01:39:59;;;;;;;;;;;14.70;96.00;;;;;;5116405;27;20002;-78
2023/10/21 01:42:27;;;;;;;;;;;14.80;96.10;;;;;;5116767;27;20002;-79
2023/10/21 01:44:55;;;;;;;;;;;14.80;96.10;;;;;;5118300;27;20065;-79
2023/10/21 01:47:22;;;;;;;;;;;14.80;96.10;;;;;;5122685;27;19995;-79
2023/10/21 01:49:48;;;;;;;;;;;14.80;96.20;;;;;;5118140;27;19986;-79
2023/10/21 01:52:15;;;;;;;;;;;14.80;96.20;;;;;;5118728;27;20045;-80
2023/10/21 01:54:42;;;;;;;;;;;14.80;96.10;;;;;;5116261;27;19983;-78
2023/10/21 01:57:08;;;;;;;;;;;14.80;96.00;;;;;;5113246;27;19983;-79
2023/10/21 01:59:39;;;;;;;;;;;14.80;95.90;;;;;;5116414;27;20066;-81
2023/10/21 02:02:05;;;;;;;;;;;14.80;95.90;;;;;;5114372;27;20089;-80
2023/10/21 02:04:32;;;;;;;;;;;14.80;95.90;;;;;;5118572;27;20168;-79
2023/10/21 02:06:59;;;;;;;;;;;14.80;95.90;;;;;;5115733;27;19979;-80
2023/10/21 02:09:25;;;;;;;;;;;14.80;95.90;;;;;;5111402;27;19974;-78
2023/10/21 02:11:53;;;;;;;;;;;14.80;95.80;;;;;;5100851;28;20001;-80
2023/10/21 02:14:22;;;;;;;;;;;14.80;95.80;;;;;;5112043;27;20441;-82
2023/10/21 02:16:50;;;;;;;;;;;14.80;95.80;;;;;;5116799;27;19991;-82
2023/10/21 02:19:17;;;;;;;;;;;14.90;95.90;;;;;;5116595;27;20090;-81
2023/10/21 02:21:44;;;;;;;;;;;14.90;95.90;;;;;;5116925;27;19990;-80
2023/10/21 02:24:10;;;;;;;;;;;14.90;95.90;;;;;;5119287;27;19983;-79
2023/10/21 02:26:37;;;;;;;;;;;14.90;95.90;;;;;;5121756;27;19982;-81
2023/10/21 02:29:04;;;;;;;;;;;14.90;96.00;;;;;;5121372;27;19990;-78
2023/10/21 02:31:31;;;;;;;;;;;14.90;95.90;;;;;;5116239;27;20463;-80
2023/10/21 02:33:59;;;;;;;;;;;14.90;96.00;;;;;;5127275;27;19982;-79
2023/10/21 02:36:26;;;;;;;;;;;14.90;96.20;;;;;;5125186;27;19978;-79
2023/10/21 02:38:53;;;;;;;;;;;14.90;96.30;;;;;;5119261;27;20027;-80
2023/10/21 02:41:19;;;;;;;;;;;14.90;96.40;;;;;;5122876;27;19975;-80
2023/10/21 02:43:46;;;;;;;;;;;14.90;96.50;;;;;;5122131;27;20089;-80
2023/10/21 02:46:13;;;;;;;;;;;14.90;96.60;;;;;;5119603;27;20021;-80
2023/10/21 02:48:40;;;;;;;;;;;14.90;96.70;;;;;;5122497;27;19975;-80
2023/10/21 02:51:12;;;;;;;;;;;14.90;96.80;;;;;;5123869;27;19993;-80
2023/10/21 02:53:39;;;;;;;;;;;14.90;96.80;;;;;;5126818;27;20073;-80
2023/10/21 02:56:06;;;;;;;;;;;14.90;96.90;;;;;;5119935;27;19982;-80
2023/10/21 02:58:33;;;;;;;;;;;14.90;96.90;;;;;;5122802;27;20084;-79
2023/10/21 03:01:01;;;;;;;;;;;14.90;97.00;;;;;;5120059;27;20026;-79
2023/10/21 03:03:28;;;;;;;;;;;14.80;97.00;;;;;;5121539;27;20076;-80
2023/10/21 03:05:54;;;;;;;;;;;14.90;97.10;;;;;;5118494;27;19994;-79
2023/10/21 03:08:22;;;;;;;;;;;14.80;97.00;;;;;;5120468;27;19985;-80
2023/10/21 03:10:49;;;;;;;;;;;14.80;97.10;;;;;;5126516;27;19974;-79
2023/10/21 03:13:15;;;;;;;;;;;14.80;97.00;;;;;;5125611;27;20001;-79
2023/10/21 03:15:42;;;;;;;;;;;14.80;97.00;;;;;;5126052;27;19994;-79
2023/10/21 03:18:09;;;;;;;;;;;14.80;97.00;;;;;;5117844;27;20441;-80
2023/10/21 03:20:35;;;;;;;;;;;14.80;97.00;;;;;;5122935;27;19998;-80
2023/10/21 03:23:03;;;;;;;;;;;14.80;97.10;;;;;;5120731;27;20005;-79
2023/10/21 03:25:33;;;;;;;;;;;14.80;97.10;;;;;;5122439;27;19981;-80
2023/10/21 03:27:59;;;;;;;;;;;14.70;97.10;;;;;;5121147;27;20001;-78
2023/10/21 03:30:26;;;;;;;;;;;14.70;97.10;;;;;;5124196;27;20796;-79
2023/10/21 03:32:52;;;;;;;;;;;14.80;97.00;;;;;;5120330;27;19998;-78
2023/10/21 03:35:19;;;;;;;;;;;14.70;97.00;;;;;;5123645;27;19975;-79
2023/10/21 03:37:46;;;;;;;;;;;14.70;97.00;;;;;;5119206;27;20600;-79
2023/10/21 03:40:13;;;;;;;;;;;14.70;97.10;;;;;;5123522;27;20525;-80
2023/10/21 03:42:41;;;;;;;;;;;14.70;97.00;;;;;;5123636;27;19990;-78
2023/10/21 03:45:08;;;;;;;;;;;14.70;97.00;;;;;;5122566;27;19986;-79
2023/10/21 03:47:35;;;;;;;;;;;14.70;97.00;;;;;;5120888;27;19987;-79
2023/10/21 03:50:03;;;;;;;;;;;14.70;96.90;;;;;;5120348;27;20336;-79
2023/10/21 03:52:29;;;;;;;;;;;14.70;96.90;;;;;;5124908;27;20070;-80
2023/10/21 03:54:56;;;;;;;;;;;14.70;96.80;;;;;;5123743;27;19982;-79
2023/10/21 03:57:23;;;;;;;;;;;14.70;96.80;;;;;;5114611;27;19985;-80
2023/10/21 03:59:51;;;;;;;;;;;14.60;96.70;;;;;;5124164;27;20491;-79
2023/10/21 04:02:17;;;;;;;;;;;14.70;96.80;;;;;;5124007;27;20029;-79
2023/10/21 04:04:44;;;;;;;;;;;14.70;96.80;;;;;;5123283;27;20451;-79
2023/10/21 04:07:11;;;;;;;;;;;14.70;96.80;;;;;;5128389;27;19979;-80
2023/10/21 04:09:37;;;;;;;;;;;14.70;97.20;;;;;;5122317;27;20006;-79
2023/10/21 04:12:04;;;;;;;;;;;14.70;96.80;;;;;;5125629;27;19994;-79
2023/10/21 04:14:32;;;;;;;;;;;14.70;96.80;;;;;;5120439;27;20085;-79
2023/10/21 04:17:00;;;;;;;;;;;14.70;96.90;;;;;;5120957;27;19994;-79
2023/10/21 04:19:27;;;;;;;;;;;14.60;96.80;;;;;;5119839;27;19994;-79
2023/10/21 04:21:53;;;;;;;;;;;14.70;96.90;;;;;;5121390;27;20482;-79
2023/10/21 04:24:20;;;;;;;;;;;14.70;96.90;;;;;;5122545;27;20082;-79
2023/10/21 04:26:47;;;;;;;;;;;14.60;96.90;;;;;;5127059;27;19974;-79
2023/10/21 04:29:15;;;;;;;;;;;14.70;96.90;;;;;;5122504;27;19986;-79
2023/10/21 04:31:43;;;;;;;;;;;14.70;96.90;;;;;;5122139;27;20038;-79
2023/10/21 04:34:12;;;;;;;;;;;14.70;96.90;;;;;;5123164;27;20413;-78
2023/10/21 04:36:39;;;;;;;;;;;14.60;96.80;;;;;;5122552;27;20360;-79
2023/10/21 04:39:07;;;;;;;;;;;14.60;96.80;;;;;;5119094;27;19999;-79
2023/10/21 04:41:33;;;;;;;;;;;14.70;96.90;;;;;;5118886;27;19982;-80
2023/10/21 04:44:00;;;;;;;;;;;14.60;96.80;;;;;;5116178;27;19979;-79
2023/10/21 04:46:26;;;;;;;;;;;14.60;96.80;;;;;;5115953;27;19998;-78
2023/10/21 04:48:53;;;;;;;;;;;14.60;96.70;;;;;;5121561;27;19987;-81
2023/10/21 04:51:21;;;;;;;;;;;14.60;96.70;;;;;;5111522;27;20446;-79
2023/10/21 04:53:48;;;;;;;;;;;14.60;96.70;;;;;;5119810;27;20435;-79
2023/10/21 04:56:14;;;;;;;;;;;14.60;96.70;;;;;;5120207;27;19975;-79
2023/10/21 04:58:41;;;;;;;;;;;14.60;96.70;;;;;;5116525;27;20051;-80
2023/10/21 05:01:10;;;;;;;;;;;14.60;96.80;;;;;;5114196;27;19999;-79
2023/10/21 05:03:37;;;;;;;;;;;14.60;96.70;;;;;;5113725;27;20071;-79
2023/10/21 05:06:04;;;;;;;;;;;14.70;96.70;;;;;;5117335;27;19986;-79
2023/10/21 05:08:33;;;;;;;;;;;14.70;96.70;;;;;;5122367;27;19989;-79
2023/10/21 05:10:59;;;;;;;;;;;14.60;97.10;;;;;;5115417;27;20057;-79
2023/10/21 05:13:26;;;;;;;;;;;14.70;96.80;;;;;;5118286;27;19998;-79
2023/10/21 05:15:53;;;;;;;;;;;14.60;96.80;;;;;;5122801;27;19998;-78
2023/10/21 05:18:20;;;;;;;;;;;14.60;96.80;;;;;;5117705;27;20098;-79
2023/10/21 05:20:46;;;;;;;;;;;14.70;96.80;;;;;;5117440;27;19987;-79
2023/10/21 05:23:13;;;;;;;;;;;14.60;96.80;;;;;;5118792;27;20600;-79
2023/10/21 05:25:41;;;;;;;;;;;14.60;96.80;;;;;;5121449;27;20681;-79
2023/10/21 05:28:07;;;;;;;;;;;14.60;96.80;;;;;;5118385;27;19986;-79
2023/10/21 05:30:34;;;;;;;;;;;14.60;96.80;;;;;;5119708;27;20001;-79
2023/10/21 05:33:01;;;;;;;;;;;14.60;96.80;;;;;;5118066;27;20002;-79
2023/10/21 05:35:27;;;;;;;;;;;14.60;96.80;;;;;;5122950;27;19982;-79
2023/10/21 05:37:54;;;;;;;;;;;14.60;96.90;;;;;;5118717;27;19982;-79
2023/10/21 05:40:20;;;;;;;;;;;14.60;96.90;;;;;;5117712;27;20822;-79
2023/10/21 05:42:48;;;;;;;;;;;14.60;96.90;;;;;;5117566;27;20111;-79
2023/10/21 05:45:15;;;;;;;;;;;14.60;96.90;;;;;;5116044;27;20436;-79
2023/10/21 05:47:41;;;;;;;;;;;14.60;96.90;;;;;;5119627;27;20385;-79
2023/10/21 05:50:09;;;;;;;;;;;14.60;96.90;;;;;;5115733;27;19981;-79
2023/10/21 05:52:35;;;;;;;;;;;14.60;96.90;;;;;;5115843;27;20278;-80
2023/10/21 05:55:04;;;;;;;;;;;14.50;96.80;;;;;;5109839;27;19975;-79
2023/10/21 05:57:31;;;;;;;;;;;14.50;96.80;;;;;;5114042;27;19974;-79
2023/10/21 05:59:58;;;;;;;;;;;14.50;96.80;;;;;;5114860;27;19998;-79
2023/10/21 06:02:25;;;;;;;;;;;14.50;96.90;;;;;;5115432;27;19999;-79
2023/10/21 06:04:52;;;;;;;;;;;14.50;96.90;;;;;;5119516;27;20050;-80
2023/10/21 06:07:20;;;;;;;;;;;14.50;96.90;;;;;;5111574;27;20612;-79
2023/10/21 06:09:46;;;;;;;;;;;14.50;96.90;;;;;;5116277;27;19974;-80
2023/10/21 06:12:13;;;;;;;;;;;14.50;96.90;;;;;;5116299;27;20043;-79
2023/10/21 06:14:39;;;;;;;;;;;14.50;96.80;;;;;;5114059;27;19974;-79
2023/10/21 06:17:07;;;;;;;;;;;14.50;96.90;;;;;;5112407;27;20013;-79
2023/10/21 06:19:34;;;;;;;;;;;14.50;96.90;;;;;;5110520;27;20005;-80
2023/10/21 06:22:02;;;;;;;;;;;14.50;96.90;;;;;;5113554;27;20048;-78
2023/10/21 06:24:29;;;;;;;;;;;14.50;96.90;;;;;;5110754;27;19983;-78
2023/10/21 06:26:58;;;;;;;;;;;14.50;96.80;;;;;;5111926;27;19979;-79
2023/10/21 06:29:25;;;;;;;;;;;14.50;96.90;;;;;;5114868;27;20466;-79
2023/10/21 06:31:52;;;;;;;;;;;14.40;96.90;;;;;;5111298;27;19994;-80
2023/10/21 06:34:20;;;;;;;;;;;14.40;96.90;;;;;;5117309;27;19979;-80
2023/10/21 06:36:46;;;;;;;;;;;14.40;96.90;;;;;;5112915;27;19979;-80
2023/10/21 06:39:13;;;;;;;;;;;14.40;96.90;;;;;;5109964;27;20457;-79
2023/10/21 06:41:40;;;;;;;;;;;14.40;96.90;;;;;;5113797;27;19986;-80
2023/10/21 06:44:08;;;;;;;;;;;14.40;96.90;;;;;;5113866;27;19974;-81
2023/10/21 06:46:34;;;;;;;;;;;14.40;96.90;;;;;;5120321;27;19990;-80
2023/10/21 06:49:01;;;;;;;;;;;14.40;97.00;;;;;;5122656;27;19971;-80
2023/10/21 06:51:29;;;;;;;;;;;14.40;97.00;;;;;;5118179;27;19974;-80
2023/10/21 06:53:55;;;;;;;;;;;14.40;97.00;;;;;;5113430;27;19979;-80
2023/10/21 06:56:22;;;;;;;;;;;14.40;97.00;;;;;;5111024;27;20011;-79
2023/10/21 06:58:49;;;;;;;;;;;14.40;97.10;;;;;;5115847;27;19982;-80
2023/10/21 07:01:16;;;;;;;;;;;14.40;97.10;;;;;;5116437;27;20377;-81
2023/10/21 07:03:42;;;;;;;;;;;14.30;97.40;;;;;;5121556;27;20404;-79
2023/10/21 07:06:11;;;;;;;;;;;14.30;97.10;;;;;;5118722;28;19985;-80
2023/10/21 07:08:39;;;;;;;;;;;14.40;97.10;;;;;;5110427;27;19975;-80
2023/10/21 07:11:05;;;;;;;;;;;14.40;97.10;;;;;;5117482;27;20818;-80
2023/10/21 07:13:32;;;;;;;;;;;14.30;97.10;;;;;;5117127;27;19997;-79
2023/10/21 07:16:05;;;;;;;;;;;14.30;97.10;;;;;;5117273;27;19998;-81
2023/10/21 07:18:32;;;;;;;;;;;14.30;97.10;;;;;;5115568;27;19974;-78
2023/10/21 07:20:59;;;;;;;;;;;14.30;97.20;;;;;;5118189;27;20102;-79
2023/10/21 07:23:25;;;;;;;;;;;14.40;97.20;;;;;;5128353;27;19991;-79
2023/10/21 07:25:54;;;;;;;;;;;14.30;97.20;;;;;;5118879;27;20011;-80
2023/10/21 07:28:20;;;;;;;;;;;14.30;97.20;;;;;;5117667;27;19974;-77
2023/10/21 07:30:47;;;;;;;;;;;14.30;97.20;;;;;;5113057;27;19995;-79
2023/10/21 07:33:14;;;;;;;;;;;14.40;97.20;;;;;;5114697;27;19979;-77
2023/10/21 07:35:41;;;;;;;;;;;14.50;96.70;;;;;;5115257;27;20395;-77
2023/10/21 07:38:07;;;;;;;;;;;14.70;96.20;;;;;;5121009;27;19978;-79
2023/10/21 07:40:34;;;;;;;;;;;14.80;96.10;;;;;;5114998;27;19935;-78
2023/10/21 07:43:02;;;;;;;;;;;14.80;96.20;;;;;;5111443;27;19927;-78
2023/10/21 07:45:28;;;;;;;;;;;14.80;96.20;;;;;;5119584;27;20415;-77
2023/10/21 07:47:55;;;;;;;;;;;14.80;96.40;;;;;;5115551;27;20004;-81
2023/10/21 07:50:23;;;;;;;;;;;14.80;96.30;;;;;;5116123;27;20419;-82
2023/10/21 07:52:49;;;;;;;;;;;14.80;96.30;;;;;;5114225;27;20035;-80
2023/10/21 07:55:16;;;;;;;;;;;14.80;96.30;;;;;;5121601;27;19931;-81
2023/10/21 07:57:43;;;;;;;;;;;14.80;96.40;;;;;;5119525;27;19933;-79
2023/10/21 08:00:13;;;;;;;;;;;14.70;96.40;;;;;;5111620;27;20404;-80
2023/10/21 08:02:40;;;;;;;;;;;14.70;96.40;;;;;;5119789;27;20018;-82
2023/10/21 08:05:07;;;;;;;;;;;14.70;96.30;;;;;;5119183;27;19934;-81
2023/10/21 08:07:33;;;;;;;;;;;14.70;96.30;;;;;;5108685;27;19928;-79
2023/10/21 08:10:00;;;;;;;;;;;14.60;96.20;;;;;;5114930;27;20529;-81
2023/10/21 08:12:27;;;;;;;;;;;14.60;96.20;;;;;;5115926;27;19928;-80
2023/10/21 08:14:55;;;;;;;;;;;14.60;96.10;;;;;;5116685;27;19934;-84
2023/10/21 08:17:23;;;;;;;;;;;14.60;95.90;;;;;;5120040;27;19931;-83
2023/10/21 08:19:50;;;;;;;;;;;14.60;95.80;;;;;;5117270;27;19934;-81
2023/10/21 08:22:17;;;;;;;;;;;14.60;95.70;;;;;;5117513;27;19942;-83
2023/10/21 08:24:43;;;;;;;;;;;14.60;96.00;;;;;;5111743;27;20508;-83
2023/10/21 08:27:11;;;;;;;;;;;14.60;95.70;;;;;;5115107;27;20219;-84
2023/10/21 08:29:38;;;;;;;;;;;14.60;95.70;;;;;;5115563;27;19940;-84
2023/10/21 08:32:04;;;;;;;;;;;14.60;95.70;;;;;;5117978;27;20405;-82
2023/10/21 08:34:36;;;;;;;;;;;14.60;95.70;;;;;;5117135;27;19934;-83
2023/10/21 08:37:05;;;;;;;;;;;14.60;95.70;;;;;;5116823;27;19963;-83
2023/10/21 08:39:31;;;;;;;;;;;14.60;95.70;;;;;;5111371;27;19934;-82
2023/10/21 08:41:58;;;;;;;;;;;14.60;95.80;;;;;;5114245;27;19943;-83
2023/10/21 08:44:25;;;;;;;;;;;14.60;95.80;;;;;;5112716;27;20310;-84
2023/10/21 08:46:54;;;;;;;;;;;14.60;95.70;;;;;;5119044;27;19935;-84
2023/10/21 08:49:21;;;;;;;;;;;14.50;95.70;;;;;;5113756;27;20440;-80
2023/10/21 08:51:49;;;;;;;;;;;14.50;95.80;;;;;;5112871;27;19996;-84
2023/10/21 08:54:17;;;;;;;;;;;14.60;95.80;;;;;;5121101;27;19935;-85
2023/10/21 08:56:44;;;;;;;;;;;14.50;95.80;;;;;;5113055;27;20014;-84
2023/10/21 08:59:10;;;;;;;;;;;14.50;95.80;;;;;;5118206;27;19927;-82
2023/10/21 09:01:37;;;;;;;;;;;14.50;95.80;;;;;;5108212;27;19928;-85
2023/10/21 09:04:04;;;;;;;;;;;14.50;95.80;;;;;;5118056;27;19959;-81
2023/10/21 09:06:31;;;;;;;;;;;14.50;95.80;;;;;;5113817;27;20035;-83
2023/10/21 09:08:57;;;;;;;;;;;14.50;95.80;;;;;;5115610;27;20382;-81
2023/10/21 09:11:27;;;;;;;;;;;14.50;95.70;;;;;;5114371;27;20080;-80
2023/10/21 09:13:58;;;;;;;;;;;14.50;95.70;;;;;;5113074;27;20130;-86
2023/10/21 09:16:25;;;;;;;;;;;14.50;95.60;;;;;;5113222;27;20230;-79
2023/10/21 09:18:59;;;;;;;;;;;14.50;95.40;;;;;;5112961;27;19954;-82
2023/10/21 09:21:37;;;;;;;;;;;14.50;95.30;;;;;;5116326;27;19934;-80
2023/10/21 09:24:04;;;;;;;;;;;14.50;95.10;;;;;;5118093;27;19927;-81
2023/10/21 09:26:36;;;;;;;;;;;14.50;95.00;;;;;;5113755;27;20340;-82
2023/10/21 09:29:06;;;;;;;;;;;14.50;94.80;;;;;;5119262;27;19927;-84
2023/10/21 09:31:48;;;;;;;;;;;14.60;94.70;;;;;;5111954;27;20308;-81
2023/10/21 09:34:24;;;;;;;;;;;14.60;94.50;;;;;;5115989;27;20010;-84
2023/10/21 09:36:51;;;;;;;;;;;14.70;94.30;;;;;;5116548;27;19934;-84
2023/10/21 09:39:18;;;;;;;;;;;14.70;94.00;;;;;;5116786;27;19938;-84
2023/10/21 09:41:46;;;;;;;;;;;14.80;93.80;;;;;;5118688;27;19966;-84
2023/10/21 09:44:13;;;;;;;;;;;14.80;93.80;;;;;;5114361;27;19954;-84
2023/10/21 09:46:43;;;;;;;;;;;14.80;93.60;;;;;;5112547;27;19932;-83
2023/10/21 09:49:11;;;;;;;;;;;14.90;93.60;;;;;;5114757;27;19932;-84
2023/10/21 09:51:41;;;;;;;;;;;14.90;93.60;;;;;;5120895;27;19927;-83
2023/10/21 09:54:11;;;;;;;;;;;14.90;93.20;;;;;;5117788;27;19942;-84
2023/10/21 09:56:38;;;;;;;;;;;14.90;93.10;;;;;;5114642;27;20150;-81
2023/10/21 09:59:07;;;;;;;;;;;14.90;93.30;;;;;;5122556;27;19927;-82
2023/10/21 10:01:37;;;;;;;;;;;15.00;93.30;;;;;;5114103;27;19927;-82
2023/10/21 10:04:05;;;;;;;;;;;15.00;93.30;;;;;;5117543;27;20292;-82
2023/10/21 10:06:32;;;;;;;;;;;15.00;93.00;;;;;;5117972;27;20052;-81
2023/10/21 10:08:59;;;;;;;;;;;15.00;92.90;;;;;;5121165;27;20648;-79
2023/10/21 10:11:28;;;;;;;;;;;15.10;92.80;;;;;;5114381;27;19979;-83
2023/10/21 10:13:54;;;;;;;;;;;15.10;92.60;;;;;;5117861;27;20374;-83
2023/10/21 10:16:23;;;;;;;;;;;15.20;92.60;;;;;;5119295;27;20410;-82
2023/10/21 10:18:50;;;;;;;;;;;15.10;92.60;;;;;;5116100;27;20371;-79
2023/10/21 10:21:18;;;;;;;;;;;15.20;92.50;;;;;;5115302;27;20203;-80
2023/10/21 10:23:51;;;;;;;;;;;15.20;92.30;;;;;;5114016;27;19994;-83
2023/10/21 10:26:28;;;;;;;;;;;15.30;92.40;;;;;;5116769;27;19982;-82
2023/10/21 10:28:54;;;;;;;;;;;15.30;92.30;;;;;;5115836;27;20066;-82
2023/10/21 10:31:23;;;;;;;;;;;15.40;92.10;;;;;;5116935;27;20513;-82
2023/10/21 10:33:51;;;;;;;;;;;15.40;92.10;;;;;;5117526;27;20476;-81
2023/10/21 10:36:27;;;;;;;;;;;15.50;91.80;;;;;;5113854;27;20062;-82
2023/10/21 10:38:54;;;;;;;;;;;15.50;91.70;;;;;;5115133;27;20035;-81
2023/10/21 10:41:21;;;;;;;;;;;15.60;91.30;;;;;;5117737;27;20093;-81
2023/10/21 10:43:50;;;;;;;;;;;15.70;91.30;;;;;;5113281;27;19987;-83
2023/10/21 10:46:17;;;;;;;;;;;15.80;91.00;;;;;;5111746;28;20514;-81
2023/10/21 10:48:46;;;;;;;;;;;15.80;90.80;;;;;;5108904;27;20034;-80
2023/10/21 10:51:14;;;;;;;;;;;15.80;90.80;;;;;;5117143;27;19984;-82
2023/10/21 10:53:41;;;;;;;;;;;15.90;90.90;;;;;;5116839;27;19994;-82
2023/10/21 10:56:09;;;;;;;;;;;16.00;90.60;;;;;;5121612;27;20105;-80
2023/10/21 10:58:36;;;;;;;;;;;16.00;90.50;;;;;;5117322;27;20443;-80
2023/10/21 11:01:07;;;;;;;;;;;16.10;90.30;;;;;;5116892;27;19999;-80
2023/10/21 11:03:36;;;;;;;;;;;16.10;89.90;;;;;;5119334;27;20049;-82
2023/10/21 11:06:04;;;;;;;;;;;16.10;89.60;;;;;;5117770;27;19983;-80
2023/10/21 11:08:31;;;;;;;;;;;16.10;90.00;;;;;;5121290;27;19983;-83
2023/10/21 11:11:04;;;;;;;;;;;16.20;89.30;;;;;;5119722;27;20037;-80
2023/10/21 11:13:31;;;;;;;;;;;16.20;89.60;;;;;;5121184;27;20039;-82
2023/10/21 11:15:58;;;;;;;;;;;16.20;89.20;;;;;;5119679;27;20375;-84
2023/10/21 11:18:26;;;;;;;;;;;16.20;89.10;;;;;;5121480;27;20439;-82
2023/10/21 11:20:53;;;;;;;;;;;16.20;89.40;;;;;;5121545;27;20499;-81
2023/10/21 11:23:23;;;;;;;;;;;16.30;89.40;;;;;;5121418;27;20002;-81
2023/10/21 11:25:51;;;;;;;;;;;16.30;89.30;;;;;;5118573;27;20455;-84
2023/10/21 11:28:18;;;;;;;;;;;16.30;89.80;;;;;;5120533;27;19978;-82
2023/10/21 11:30:45;;;;;;;;;;;16.40;89.10;;;;;;5116185;27;20002;-82
2023/10/21 11:33:11;;;;;;;;;;;16.40;88.50;;;;;;5120381;27;20042;-82
2023/10/21 11:35:39;;;;;;;;;;;16.40;88.40;;;;;;5120580;27;20343;-82
2023/10/21 11:38:06;;;;;;;;;;;16.40;88.40;;;;;;5122649;27;19986;-82
2023/10/21 11:40:34;;;;;;;;;;;16.50;88.00;;;;;;5114649;27;19985;-82
2023/10/21 11:43:04;;;;;;;;;;;16.40;88.10;;;;;;5120891;27;20487;-82
2023/10/21 11:45:31;;;;;;;;;;;16.40;89.00;;;;;;5119151;27;19994;-83
2023/10/21 11:47:58;;;;;;;;;;;16.40;88.00;;;;;;5116555;27;19978;-83
2023/10/21 11:50:25;;;;;;;;;;;16.40;87.80;;;;;;5116670;27;20887;-82
2023/10/21 11:52:52;;;;;;;;;;;16.50;88.40;;;;;;5118587;27;20002;-83
2023/10/21 11:55:36;;;;;;;;;;;16.40;89.00;;;;;;5124414;27;19986;-80
2023/10/21 12:29:17;;;;;;;;;;;16.20;90.00;;;;;;5119793;27;20021;-82
2023/10/21 12:31:50;;;;;;;;;;;16.20;90.30;;;;;;5115349;27;19997;-82
2023/10/21 12:37:28;;;;;;;;;;;16.20;90.10;;;;;;5117287;27;19982;-83
2023/10/21 12:39:57;;;;;;;;;;;16.30;90.10;;;;;;5121284;27;20007;-82
2023/10/21 12:42:26;;;;;;;;;;;16.30;90.20;;;;;;5113636;27;20597;-82
2023/10/21 12:44:54;;;;;;;;;;;16.40;89.50;;;;;;5120285;27;19989;-81
2023/10/21 12:47:22;;;;;;;;;;;16.40;89.30;;;;;;5117839;27;19991;-82
2023/10/21 12:49:50;;;;;;;;;;;16.40;88.60;;;;;;5116625;27;19987;-83
2023/10/21 12:52:17;;;;;;;;;;;16.50;88.90;;;;;;5121022;27;19990;-83
2023/10/21 12:54:44;;;;;;;;;;;16.50;88.10;;;;;;5116005;27;20017;-83
2023/10/21 12:57:11;;;;;;;;;;;16.50;87.90;;;;;;5118660;27;20006;-82
2023/10/21 12:59:38;;;;;;;;;;;16.50;88.50;;;;;;5121485;27;19978;-82
2023/10/21 13:02:07;;;;;;;;;;;16.50;88.00;;;;;;5117705;27;20072;-82
2023/10/21 13:04:37;;;;;;;;;;;16.60;88.50;;;;;;5114228;27;19978;-82
2023/10/21 13:07:05;;;;;;;;;;;16.50;88.70;;;;;;5120619;27;20329;-82
2023/10/21 13:09:31;;;;;;;;;;;16.50;89.20;;;;;;5122075;27;20432;-82
2023/10/21 13:11:58;;;;;;;;;;;16.50;89.30;;;;;;5119585;27;20046;-81
2023/10/21 13:14:27;;;;;;;;;;;16.50;89.40;;;;;;5120891;27;19997;-82
2023/10/21 13:16:53;;;;;;;;;;;16.50;89.50;;;;;;5118472;27;19999;-82
2023/10/21 13:19:20;;;;;;;;;;;16.50;89.70;;;;;;5122352;27;20431;-82
2023/10/21 13:21:49;;;;;;;;;;;16.50;89.80;;;;;;5119221;27;20009;-82
2023/10/21 13:24:15;;;;;;;;;;;16.60;89.90;;;;;;5119105;27;20449;-82
2023/10/21 13:26:43;;;;;;;;;;;16.50;89.30;;;;;;5120460;27;20051;-83
2023/10/21 13:29:10;;;;;;;;;;;16.60;88.80;;;;;;5119163;27;19974;-82
2023/10/21 13:31:37;;;;;;;;;;;16.70;88.10;;;;;;5116929;27;19998;-81
2023/10/21 13:34:03;;;;;;;;;;;16.70;87.40;;;;;;5119464;27;19986;-82
2023/10/21 13:36:30;;;;;;;;;;;16.80;87.10;;;;;;5122602;27;19981;-82
2023/10/21 13:39:00;;;;;;;;;;;16.90;86.70;;;;;;5117446;27;20034;-81
2023/10/21 13:41:26;;;;;;;;;;;16.90;85.70;;;;;;5118593;27;19978;-80
2023/10/21 13:43:53;;;;;;;;;;;17.00;85.20;;;;;;5119800;27;20444;-80
2023/10/21 13:46:20;;;;;;;;;;;17.10;84.10;;;;;;5116705;27;20130;-82
2023/10/21 13:48:46;;;;;;;;;;;17.10;83.70;;;;;;5116530;27;20020;-81
2023/10/21 13:51:13;;;;;;;;;;;17.20;83.50;;;;;;5119779;27;19975;-82
2023/10/21 13:53:39;;;;;;;;;;;17.20;83.50;;;;;;5115470;27;20052;-81
2023/10/21 13:56:08;;;;;;;;;;;17.30;83.50;;;;;;5116874;27;19981;-81
2023/10/21 13:58:35;;;;;;;;;;;17.30;82.90;;;;;;5119937;27;19982;-81
2023/10/21 14:01:06;;;;;;;;;;;17.40;83.60;;;;;;5114887;27;20367;-82
2023/10/21 14:03:32;;;;;;;;;;;17.40;82.40;;;;;;5117692;27;19994;-81
2023/10/21 14:06:04;;;;;;;;;;;17.50;82.50;;;;;;5121077;27;20101;-81
2023/10/21 14:08:31;;;;;;;;;;;17.50;84.20;;;;;;5121397;27;19974;-81
2023/10/21 14:10:59;;;;;;;;;;;17.50;83.10;;;;;;5115552;27;20005;-81
2023/10/21 14:13:28;;;;;;;;;;;17.50;82.80;;;;;;5120946;27;20019;-82
2023/10/21 14:15:55;;;;;;;;;;;17.60;83.10;;;;;;5117549;27;20287;-81
2023/10/21 14:18:22;;;;;;;;;;;17.60;81.90;;;;;;5120176;27;20069;-82
2023/10/21 14:20:50;;;;;;;;;;;17.60;81.10;;;;;;5118039;27;19985;-82
2023/10/21 14:23:18;;;;;;;;;;;17.60;81.80;;;;;;5115057;27;20005;-82
2023/10/21 14:25:45;;;;;;;;;;;17.60;81.80;;;;;;5115578;27;20136;-81
2023/10/21 14:28:14;;;;;;;;;;;17.60;82.30;;;;;;5114160;27;19983;-82
2023/10/21 14:30:42;;;;;;;;;;;17.60;82.80;;;;;;5112413;27;20540;-81
2023/10/21 14:33:11;;;;;;;;;;;17.60;82.00;;;;;;5118183;27;20299;-81
2023/10/21 14:35:38;;;;;;;;;;;17.70;82.50;;;;;;5117399;27;19974;-81
2023/10/21 14:38:06;;;;;;;;;;;17.60;81.30;;;;;;5120150;27;19985;-81
2023/10/21 14:40:32;;;;;;;;;;;17.60;81.70;;;;;;5115324;27;20355;-81
2023/10/21 14:42:59;;;;;;;;;;;17.60;79.80;;;;;;5117961;27;19998;-82
2023/10/21 14:45:26;;;;;;;;;;;17.60;79.80;;;;;;5110860;27;19999;-81
2023/10/21 14:47:55;;;;;;;;;;;17.50;79.40;;;;;;5110131;27;19975;-82
2023/10/21 14:50:23;;;;;;;;;;;17.50;79.90;;;;;;5112978;27;19986;-82
2023/10/21 14:52:50;;;;;;;;;;;17.50;80.30;;;;;;5114110;27;19995;-82